Time;durP1;ratioP1;P1;durP2;ratioP2;P2;SDS_P1;SDS_P2;PMS_P1;PMS_P2;Temp;Humidity;BMP_temperature;BMP_pressure;BME280_temperature;BME280_humidity;BME280_pressure;Samples;Min_cycle;Max_cycle;Signal;HPM_P1;HPM_P2
2023/06/28 15:57:45;;;;;;;13.87;6.60;;;;;;;-143.84;91.29;44940.53;4898856;27;20490;-53
2023/06/28 16:00:14;;;;;;;7.60;5.90;;;;;;;-143.84;91.09;44919.59;4912534;29;20453;-60
2023/06/28 16:02:41;;;;;;;9.43;6.20;;;;;;;-143.84;91.70;44965.28;4909727;29;20454;-53
2023/06/28 16:05:08;;;;;;;8.93;6.73;;;;;;;-143.84;92.03;44913.88;4909754;29;20463;-56
2023/06/28 16:07:35;;;;;;;7.20;6.53;;;;;;;-143.84;92.12;44940.53;4912021;29;20469;-53
2023/06/28 16:10:03;;;;;;;6.30;5.80;;;;;;;-143.84;92.35;44938.63;4912493;29;20969;-53
2023/06/28 16:12:30;;;;;;;10.47;6.90;;;;;;;-143.84;92.32;44923.41;4901460;29;20484;-54
2023/06/28 16:14:58;;;;;;;8.13;6.67;;;;;;;-143.84;92.92;44911.97;4895740;29;20462;-54
2023/06/28 16:17:25;;;;;;;9.13;6.97;;;;;;;-143.84;93.51;44900.53;4892029;29;20527;-54
2023/06/28 16:19:52;;;;;;;8.03;6.90;;;;;;;-143.84;93.61;44923.41;4893703;29;20850;-54
2023/06/28 16:22:20;;;;;;;12.87;6.80;;;;;;;-143.84;93.86;44856.75;4899134;29;20445;-54
2023/06/28 16:24:47;;;;;;;12.70;6.63;;;;;;;-143.84;93.82;44849.13;4896435;29;20542;-54
2023/06/28 16:27:19;;;;;;;12.27;7.83;;;;;;;-143.84;93.91;44862.47;4892801;29;20464;-54
2023/06/28 16:29:47;;;;;;;9.70;7.57;;;;;;;-143.84;93.67;44885.31;4894555;29;20456;-54
2023/06/28 16:32:16;;;;;;;7.83;7.13;;;;;;;-143.84;93.45;44892.94;4890398;29;20492;-54
2023/06/28 16:34:43;;;;;;;10.17;6.30;;;;;;;-143.84;93.42;44919.59;4900009;29;20493;-54
2023/06/28 16:37:10;;;;;;;7.73;7.00;;;;;;;-143.84;93.64;44889.13;4894038;29;20462;-54
2023/06/28 16:39:38;;;;;;;8.80;7.53;;;;;;;-143.84;94.12;44883.41;4896691;29;20477;-54
2023/06/28 16:42:06;;;;;;;7.47;6.43;;;;;;;-143.84;94.62;44891.03;4912722;29;20456;-54
2023/06/28 16:44:33;;;;;;;9.57;6.70;;;;;;;-143.84;94.93;44851.03;4912733;29;20438;-54
2023/06/28 16:47:04;;;;;;;10.37;6.63;;;;;;;-143.84;95.29;44803.44;4906712;29;21017;-54
2023/06/28 16:49:32;;;;;;;10.10;7.10;;;;;;;-143.84;95.25;44801.53;4912424;29;20845;-54
2023/06/28 16:51:59;;;;;;;9.00;6.97;;;;;;;-143.84;95.99;44790.13;4912429;29;20464;-54
2023/06/28 16:54:26;;;;;;;8.83;7.00;;;;;;;-143.84;96.00;44704.44;4912748;29;20449;-54
2023/06/28 16:56:53;;;;;;;8.77;7.87;;;;;;;-143.84;96.19;44733.00;4912925;29;20571;-54
2023/06/28 16:59:21;;;;;;;8.07;7.27;;;;;;;-143.84;96.10;44740.59;4914342;29;20448;-54
2023/06/28 17:01:48;;;;;;;9.37;7.60;;;;;;;-143.84;95.96;44771.06;4911162;29;20449;-54
2023/06/28 17:04:15;;;;;;;9.13;7.27;;;;;;;-143.84;95.92;44765.34;4906518;29;20450;-54
2023/06/28 17:06:43;;;;;;;9.63;7.10;;;;;;;-143.84;95.86;44780.59;4895375;29;20449;-54
2023/06/28 17:09:10;;;;;;;10.33;6.93;;;;;;;-143.84;93.57;44917.69;4898739;29;20485;-54
2023/06/28 17:11:37;;;;;;;8.17;5.90;;;;;;;-143.84;91.68;44932.91;4899198;29;20449;-54
2023/06/28 17:14:06;;;;;;;18.13;4.87;;;;;;;-143.84;88.37;45016.69;4899121;29;21002;-54
2023/06/28 17:16:34;;;;;;;4.13;3.73;;;;;;;-143.84;87.27;45028.13;4898890;29;20453;-54
2023/06/28 17:19:01;;;;;;;4.90;4.50;;;;;;;-143.84;87.02;45041.44;4899077;29;20459;-56
2023/06/28 17:21:28;;;;;;;5.30;4.80;;;;;;;-143.84;86.94;45050.97;4898862;29;21023;-55
2023/06/28 17:23:57;;;;;;;3.97;3.67;;;;;;;-143.84;87.30;45028.13;4907013;29;20463;-55
2023/06/28 17:26:25;;;;;;;6.20;5.30;;;;;;;-143.84;87.14;45020.50;4917649;29;20455;-56
2023/06/28 17:28:53;;;;;;;12.17;4.13;;;;;;;-143.84;86.72;45070.00;4908098;29;20454;-56
2023/06/28 17:31:20;;;;;;;8.87;4.40;;;;;;;-143.84;86.85;45028.13;4898697;29;20448;-56
2023/06/28 17:33:48;;;;;;;9.47;4.97;;;;;;;-143.84;87.16;45026.22;4900824;29;20484;-55
2023/06/28 17:36:15;;;;;;;5.20;4.03;;;;;;;-143.84;87.02;45066.22;4916002;29;20450;-56
2023/06/28 17:38:43;;;;;;;3.83;3.47;;;;;;;-143.84;87.45;45064.31;4917438;29;20463;-56
2023/06/28 17:41:12;;;;;;;8.70;3.90;;;;;;;-143.84;87.28;45020.50;4917264;29;20953;-56
2023/06/28 17:43:40;;;;;;;5.27;4.47;;;;;;;-143.84;87.59;45066.22;4913751;29;20545;-55
2023/06/28 17:46:08;;;;;;;16.13;3.73;;;;;;;-143.84;87.48;45018.59;4897404;29;20532;-56
2023/06/28 17:48:35;;;;;;;10.00;4.00;;;;;;;-143.84;88.13;45054.78;4904390;29;20446;-56
2023/06/28 17:51:02;;;;;;;4.50;4.10;;;;;;;-143.84;88.29;45045.25;4897478;29;20450;-56
2023/06/28 17:53:29;;;;;;;13.90;3.53;;;;;;;-143.84;87.88;45035.75;4897790;29;20866;-56
2023/06/28 17:55:56;;;;;;;4.53;4.13;;;;;;;-143.84;87.79;45037.66;4898160;29;20577;-56
2023/06/28 17:58:25;;;;;;;12.37;4.53;;;;;;;-143.84;87.74;45056.69;4902860;29;21032;-56
2023/06/28 18:00:52;;;;;;;4.60;3.90;;;;;;;-143.84;86.74;45070.00;4897549;29;20888;-56
2023/06/28 18:03:19;;;;;;;6.80;3.40;;;;;;;-143.84;86.64;45052.88;4899778;29;20466;-56
2023/06/28 18:05:46;;;;;;;4.60;3.07;;;;;;;-143.84;87.12;45054.78;4897682;29;20443;-55
2023/06/28 18:08:13;;;;;;;5.47;3.93;;;;;;;-143.84;86.90;45041.44;4897458;29;20472;-56
2023/06/28 18:10:40;;;;;;;12.90;3.67;;;;;;;-143.84;87.00;45043.34;4900476;29;20523;-56
2023/06/28 18:13:07;;;;;;;13.60;3.93;;;;;;;-143.84;87.08;45075.72;4898666;29;20481;-55
2023/06/28 18:15:36;;;;;;;9.00;4.10;;;;;;;-143.84;86.72;45075.72;4896315;29;20442;-55
2023/06/28 18:18:05;;;;;;;7.30;4.27;;;;;;;-143.84;86.83;45073.81;4895191;29;20456;-55
2023/06/28 18:20:33;;;;;;;4.50;3.80;;;;;;;-143.84;86.88;45052.88;4895842;29;20453;-55
2023/06/28 18:23:00;;;;;;;6.13;4.90;;;;;;;-143.84;86.80;45060.50;4896558;29;20442;-55
2023/06/28 18:25:27;;;;;;;5.13;3.77;;;;;;;-143.84;86.82;45070.00;4898179;29;20460;-55
2023/06/28 18:27:54;;;;;;;5.13;4.00;;;;;;;-143.84;86.79;45073.81;4897385;29;20454;-55
2023/06/28 18:30:21;;;;;;;5.27;4.47;;;;;;;-143.84;86.65;45068.13;4894581;29;21421;-55
2023/06/28 18:32:50;;;;;;;6.20;4.00;;;;;;;-143.84;86.31;45075.72;4912619;29;20939;-56
2023/06/28 18:35:17;;;;;;;4.60;4.20;;;;;;;-143.84;85.94;45077.63;4914904;29;20949;-55
2023/06/28 18:37:44;;;;;;;4.30;3.90;;;;;;;-143.84;86.08;45092.88;4914564;29;20456;-55
2023/06/28 18:40:12;;;;;;;4.80;3.37;;;;;;;-143.84;86.05;45079.53;4914670;29;20445;-55
2023/06/28 18:42:39;;;;;;;7.40;4.20;;;;;;;-143.84;86.33;45075.72;4914927;29;20446;-55
2023/06/28 18:45:07;;;;;;;14.17;4.37;;;;;;;-143.84;86.68;45056.69;4914681;29;20479;-55
2023/06/28 18:47:35;;;;;;;4.80;4.13;;;;;;;-143.84;86.51;45092.88;4914932;29;20460;-55
2023/06/28 18:50:04;;;;;;;4.43;4.03;;;;;;;-143.84;86.96;45039.53;4913351;29;20445;-55
2023/06/28 18:52:31;;;;;;;6.23;4.30;;;;;;;-143.84;86.62;45068.13;4903085;29;20558;-56
2023/06/28 18:54:58;;;;;;;12.10;4.87;;;;;;;-143.84;86.50;45075.72;4904627;29;20488;-56
2023/06/28 18:57:25;;;;;;;9.23;4.10;;;;;;;-143.84;86.76;45085.25;4905077;29;20493;-55
2023/06/28 18:59:52;;;;;;;10.27;4.83;;;;;;;-143.84;86.72;45062.41;4904602;29;20811;-56
2023/06/28 19:02:20;;;;;;;11.43;4.60;;;;;;;-143.84;86.23;45070.00;4903465;29;20445;-56
2023/06/28 19:04:47;;;;;;;9.50;4.40;;;;;;;-143.84;86.85;45092.88;4913988;29;20454;-56
2023/06/28 19:07:15;;;;;;;8.27;3.87;;;;;;;-143.84;86.69;45054.78;4903618;29;20456;-56
2023/06/28 19:09:43;;;;;;;7.87;4.00;;;;;;;-143.84;87.03;45058.59;4902567;29;20979;-55
2023/06/28 19:12:11;;;;;;;4.63;3.77;;;;;;;-143.84;86.79;45056.69;4913288;29;20457;-55
2023/06/28 19:14:40;;;;;;;10.47;4.10;;;;;;;-143.84;86.71;45077.63;4907592;29;20875;-55
2023/06/28 19:17:07;;;;;;;5.90;3.60;;;;;;;-143.84;86.56;45052.88;4911658;29;20541;-55
2023/06/28 19:19:34;;;;;;;9.27;4.80;;;;;;;-143.84;86.28;45066.22;4901719;29;20448;-55
2023/06/28 19:22:01;;;;;;;3.90;3.63;;;;;;;-143.84;86.53;45018.59;4894977;29;20450;-55
2023/06/28 19:24:30;;;;;;;5.20;3.90;;;;;;;-143.84;86.74;45045.25;4895695;29;20463;-55
2023/06/28 19:26:57;;;;;;;5.73;3.90;;;;;;;-143.84;87.04;45083.34;4894211;29;20555;-55
2023/06/28 19:29:24;;;;;;;5.80;4.10;;;;;;;-143.84;86.82;45062.41;4891946;29;20518;-55
2023/06/28 19:31:51;;;;;;;11.27;3.90;;;;;;;-143.84;87.00;45052.88;4892369;29;20449;-55
2023/06/28 19:34:18;;;;;;;4.23;3.93;;;;;;;-143.84;87.34;45066.22;4897211;29;20857;-55
2023/06/28 19:36:45;;;;;;;6.30;3.93;;;;;;;-143.84;87.32;45083.34;4897726;29;20440;-56
2023/06/28 19:39:13;;;;;;;5.63;4.00;;;;;;;-143.84;87.46;45089.06;4899422;29;20946;-55
2023/06/28 19:41:41;;;;;;;7.50;3.87;;;;;;;-143.84;87.80;45090.97;4895261;29;20893;-55
2023/06/28 19:44:08;;;;;;;4.70;4.30;;;;;;;-143.84;87.73;45090.97;4897419;29;20556;-55
2023/06/28 19:46:35;;;;;;;3.90;3.60;;;;;;;-143.84;87.65;45090.97;4893271;29;20461;-55
2023/06/28 19:49:02;;;;;;;7.50;3.97;;;;;;;-143.84;87.99;45075.72;4901266;29;20457;-55
2023/06/28 19:51:29;;;;;;;6.30;3.83;;;;;;;-143.84;88.17;45083.34;4901912;29;20946;-55
2023/06/28 19:53:57;;;;;;;4.10;3.80;;;;;;;-143.84;88.47;45100.47;4894438;29;20481;-55
2023/06/28 19:56:24;;;;;;;4.80;3.67;;;;;;;-143.84;88.61;45083.34;4893388;29;20492;-55
2023/06/28 19:58:53;;;;;;;13.03;4.63;;;;;;;-143.84;88.97;45066.22;4901888;29;20449;-55
2023/06/28 20:01:20;;;;;;;5.07;3.73;;;;;;;-143.84;89.16;45079.53;4893457;29;20544;-55
2023/06/28 20:03:48;;;;;;;4.80;4.23;;;;;;;-143.84;89.24;45056.69;4899470;29;20542;-55
2023/06/28 20:06:15;;;;;;;4.30;4.00;;;;;;;-143.84;89.45;45052.88;4894803;29;20537;-55
2023/06/28 20:08:42;;;;;;;4.97;4.40;;;;;;;-143.84;89.64;45083.34;4895107;29;20524;-55
2023/06/28 20:11:09;;;;;;;4.37;3.97;;;;;;;-143.84;89.63;45056.69;4893087;29;21364;-55
2023/06/28 20:13:37;;;;;;;8.93;4.47;;;;;;;-143.84;89.58;45068.13;4897468;29;20489;-55
2023/06/28 20:16:06;;;;;;;5.00;3.87;;;;;;;-143.84;89.75;45064.31;4893931;29;20460;-55
2023/06/28 20:18:33;;;;;;;4.83;4.00;;;;;;;-143.84;89.86;45031.94;4898298;29;20579;-55
2023/06/28 20:21:00;;;;;;;4.53;4.13;;;;;;;-143.84;90.25;45052.88;4894428;29;20453;-55
2023/06/28 20:23:28;;;;;;;4.50;4.10;;;;;;;-143.84;90.44;45081.44;4897919;29;20460;-55
2023/06/28 20:25:55;;;;;;;3.77;3.47;;;;;;;-143.84;90.05;45056.69;4894080;29;20494;-56
2023/06/28 20:28:22;;;;;;;4.63;3.73;;;;;;;-143.84;90.01;45064.31;4896836;29;20513;-55
2023/06/28 20:30:49;;;;;;;5.03;3.73;;;;;;;-143.84;89.67;45052.88;4895956;29;20445;-56
2023/06/28 20:33:17;;;;;;;3.43;2.97;;;;;;;-143.84;89.78;45071.91;4892935;29;20450;-56
2023/06/28 20:35:44;;;;;;;3.10;2.90;;;;;;;-143.84;89.65;45079.53;4891975;29;20850;-55
2023/06/28 20:38:12;;;;;;;8.40;3.00;;;;;;;-143.84;89.99;45083.34;4898649;29;20460;-55
2023/06/28 20:40:39;;;;;;;4.70;2.83;;;;;;;-143.84;89.87;45075.72;4891484;29;20449;-55
2023/06/28 20:43:07;;;;;;;4.03;3.00;;;;;;;-143.84;89.77;45062.41;4892480;29;20921;-55
2023/06/28 20:45:34;;;;;;;3.40;3.10;;;;;;;-143.84;89.78;45075.72;4894433;29;20458;-55
2023/06/28 20:48:02;;;;;;;6.07;3.17;;;;;;;-143.84;90.18;45075.72;4894209;29;20875;-55
2023/06/28 20:50:31;;;;;;;2.50;2.30;;;;;;;-143.84;90.32;45045.25;4894206;29;20441;-55
2023/06/28 20:52:58;;;;;;;2.87;2.67;;;;;;;-143.84;90.31;45064.31;4892284;29;20540;-56
2023/06/28 20:55:26;;;;;;;3.97;3.67;;;;;;;-143.84;90.25;45075.72;4894792;29;21345;-56
2023/06/28 20:57:54;;;;;;;2.53;2.33;;;;;;;-143.84;90.25;45054.78;4897554;29;20448;-56
2023/06/28 21:00:25;;;;;;;3.10;2.90;;;;;;;-143.84;90.02;45081.44;4894211;29;20447;-56
2023/06/28 21:02:52;;;;;;;3.10;2.90;;;;;;;-143.84;90.03;45092.88;4893813;29;20444;-55
2023/06/28 21:05:19;;;;;;;3.30;3.10;;;;;;;-143.84;90.17;45047.16;4895783;29;20970;-56
2023/06/28 21:07:48;;;;;;;3.50;2.80;;;;;;;-143.84;90.27;45081.44;4899876;29;20453;-55
2023/06/28 21:10:15;;;;;;;3.07;2.80;;;;;;;-143.84;90.62;45083.34;4894120;29;20520;-56
2023/06/28 21:12:42;;;;;;;3.27;3.03;;;;;;;-143.84;90.98;45085.25;4891548;29;20445;-55
2023/06/28 21:15:10;;;;;;;3.83;3.10;;;;;;;-143.84;90.75;45077.63;4893992;29;20484;-56
2023/06/28 21:17:37;;;;;;;3.23;3.03;;;;;;;-143.84;90.74;45083.34;4893965;29;20508;-56
2023/06/28 21:20:08;;;;;;;6.63;3.30;;;;;;;-143.84;90.75;45108.09;4899388;29;20814;-55
2023/06/28 21:22:38;;;;;;;3.40;3.20;;;;;;;-143.84;90.72;45071.91;4901523;29;20440;-56
2023/06/28 21:25:07;;;;;;;3.00;2.73;;;;;;;-143.84;90.98;45071.91;4897505;29;21063;-55
2023/06/28 21:27:34;;;;;;;3.30;3.00;;;;;;;-143.84;90.98;45081.44;4912282;29;20487;-56
2023/06/28 21:30:01;;;;;;;3.83;3.53;;;;;;;-143.84;91.40;45054.78;4912220;29;20456;-56
2023/06/28 21:32:29;;;;;;;4.00;3.70;;;;;;;-143.84;91.60;45079.53;4912265;29;20444;-56
2023/06/28 21:34:56;;;;;;;6.70;3.43;;;;;;;-143.84;91.76;45049.06;4912296;29;20484;-56
2023/06/28 21:37:23;;;;;;;8.30;4.67;;;;;;;-143.84;91.86;45062.41;4912241;29;20966;-55
2023/06/28 21:39:50;;;;;;;3.90;3.50;;;;;;;-143.84;91.80;45056.69;4912346;29;20511;-55
2023/06/28 21:42:18;;;;;;;12.73;3.90;;;;;;;-143.84;91.71;45075.72;4911823;29;20516;-56
2023/06/28 21:44:45;;;;;;;4.87;4.47;;;;;;;-143.84;91.88;45064.31;4912347;29;20508;-55
2023/06/28 21:47:12;;;;;;;5.20;3.73;;;;;;;-143.84;91.71;45073.81;4912215;29;20450;-55
2023/06/28 21:49:40;;;;;;;8.90;4.80;;;;;;;-143.84;91.90;45068.13;4911547;29;20445;-55
2023/06/28 21:52:07;;;;;;;3.73;3.50;;;;;;;-143.84;91.67;45060.50;4911973;29;20826;-55
2023/06/28 21:54:34;;;;;;;4.13;3.83;;;;;;;-143.84;91.63;45077.63;4912833;29;20573;-55
2023/06/28 21:57:02;;;;;;;6.90;4.10;;;;;;;-143.84;91.72;45056.69;4915321;29;20548;-55
2023/06/28 21:59:31;;;;;;;4.10;3.70;;;;;;;-143.84;91.69;45047.16;4915390;29;20580;-55
2023/06/28 22:01:58;;;;;;;4.80;4.40;;;;;;;-143.84;91.64;45090.97;4915316;29;20452;-55
2023/06/28 22:04:26;;;;;;;4.37;3.97;;;;;;;-143.84;91.69;45075.72;4915674;29;20858;-56
2023/06/28 22:06:53;;;;;;;4.30;3.90;;;;;;;-143.84;91.42;45089.06;4915349;29;20449;-55
2023/06/28 22:09:20;;;;;;;5.63;4.10;;;;;;;-143.84;91.11;45070.00;4915491;29;20440;-55
2023/06/28 22:11:47;;;;;;;4.53;3.93;;;;;;;-143.84;90.83;45058.59;4915240;29;20543;-56
2023/06/28 22:14:14;;;;;;;4.40;3.33;;;;;;;-143.84;90.40;45079.53;4915282;29;20559;-56
2023/06/28 22:16:48;;;;;;;4.07;3.77;;;;;;;-143.84;89.92;45068.13;4915016;29;20452;-56
2023/06/28 22:19:15;;;;;;;5.57;3.53;;;;;;;-143.84;89.74;45062.41;4915115;29;21161;-55
2023/06/28 22:21:44;;;;;;;3.37;3.07;;;;;;;-143.84;89.41;45071.91;4915008;29;20452;-55
2023/06/28 22:24:11;;;;;;;3.60;3.30;;;;;;;-143.84;88.99;45094.78;4915380;29;20479;-55
2023/06/28 22:26:39;;;;;;;6.33;3.57;;;;;;;-143.84;88.81;45094.78;4914982;29;20453;-55
2023/06/28 22:29:07;;;;;;;5.10;3.57;;;;;;;-143.84;88.61;45094.78;4915087;29;20450;-55
2023/06/28 22:31:34;;;;;;;6.17;3.50;;;;;;;-143.84;88.76;45087.16;4914704;29;20501;-55
2023/06/28 22:34:03;;;;;;;8.07;3.83;;;;;;;-143.84;88.73;45081.44;4914982;29;20508;-55
2023/06/28 22:36:31;;;;;;;3.83;3.47;;;;;;;-143.84;88.44;45073.81;4914986;29;20862;-55
2023/06/28 22:38:59;;;;;;;5.00;3.83;;;;;;;-143.84;88.08;45079.53;4914830;29;20517;-55
2023/06/28 22:41:26;;;;;;;4.40;2.87;;;;;;;-143.84;87.73;45079.53;4914767;29;20492;-56
2023/06/28 22:43:53;;;;;;;4.77;3.30;;;;;;;-143.84;87.40;45083.34;4914718;29;20924;-55
2023/06/28 22:46:20;;;;;;;4.10;3.00;;;;;;;-143.84;86.99;45087.16;4914371;29;20985;-55
2023/06/28 22:48:47;;;;;;;4.00;3.67;;;;;;;-143.84;86.81;45089.06;4914326;29;20892;-55
2023/06/28 22:51:16;;;;;;;2.60;2.40;;;;;;;-143.84;86.90;45085.25;4914448;29;20444;-55
2023/06/28 22:53:46;;;;;;;3.73;2.80;;;;;;;-143.84;86.33;45068.13;4914536;29;20463;-55
2023/06/28 22:56:14;;;;;;;3.53;3.27;;;;;;;-143.84;85.98;45092.88;4914067;29;20544;-55
2023/06/28 22:58:42;;;;;;;3.07;2.87;;;;;;;-143.84;86.19;45075.72;4914440;29;20445;-55
2023/06/28 23:01:10;;;;;;;4.60;3.13;;;;;;;-143.84;85.72;45089.06;4914221;29;20441;-55
2023/06/28 23:03:37;;;;;;;4.57;3.40;;;;;;;-143.84;85.78;45079.53;4914297;29;20456;-56
2023/06/28 23:06:06;;;;;;;3.50;3.20;;;;;;;-143.84;86.17;45081.44;4914132;29;21018;-55
2023/06/28 23:08:36;;;;;;;3.73;2.67;;;;;;;-143.84;86.39;45113.81;4914156;29;20464;-55
2023/06/28 23:11:03;;;;;;;3.70;3.20;;;;;;;-143.84;86.22;45066.22;4914189;29;20453;-56
2023/06/28 23:13:30;;;;;;;4.00;3.00;;;;;;;-143.84;86.08;45077.63;4914102;29;20509;-55
2023/06/28 23:15:57;;;;;;;3.43;3.03;;;;;;;-143.84;85.95;45077.63;4914084;29;20498;-55
2023/06/28 23:18:24;;;;;;;5.40;3.73;;;;;;;-143.84;85.95;45090.97;4914112;29;20449;-55
2023/06/28 23:20:52;;;;;;;4.83;3.23;;;;;;;-143.84;86.34;45077.63;4914058;29;20511;-56
2023/06/28 23:23:22;;;;;;;4.07;3.13;;;;;;;-143.84;86.22;45054.78;4913969;29;20968;-56
2023/06/28 23:25:52;;;;;;;4.07;3.10;;;;;;;-143.84;85.83;45089.06;4914268;29;20478;-56
2023/06/28 23:28:19;;;;;;;2.80;2.60;;;;;;;-143.84;85.55;45136.66;4913699;29;20472;-55
2023/06/28 23:30:47;;;;;;;4.80;2.73;;;;;;;-143.84;85.08;45106.19;4913811;29;20924;-55
2023/06/28 23:33:15;;;;;;;2.97;2.77;;;;;;;-143.84;85.08;45089.06;4913666;29;20512;-56
2023/06/28 23:35:43;;;;;;;2.70;2.50;;;;;;;-143.84;85.25;45111.91;4913628;29;20484;-55
2023/06/28 23:38:12;;;;;;;3.20;2.90;;;;;;;-143.84;85.40;45071.91;4913834;29;20461;-55
2023/06/28 23:40:39;;;;;;;2.43;2.33;;;;;;;-143.84;84.57;45089.06;4913352;29;20448;-55
2023/06/28 23:43:08;;;;;;;2.63;2.30;;;;;;;-143.84;84.40;45071.91;4913370;29;20453;-55
2023/06/28 23:45:35;;;;;;;3.50;2.87;;;;;;;-143.84;84.72;45098.56;4912968;29;20827;-55
2023/06/28 23:48:03;;;;;;;3.50;2.40;;;;;;;-143.84;84.71;45102.38;4913315;29;20939;-55
2023/06/28 23:50:32;;;;;;;5.50;3.40;;;;;;;-143.84;85.57;45102.38;4913455;29;20449;-55
2023/06/28 23:53:01;;;;;;;4.70;2.93;;;;;;;-143.84;86.17;45106.19;4913464;29;20449;-55
2023/06/28 23:55:28;;;;;;;3.03;2.83;;;;;;;-143.84;86.61;45102.38;4913298;29;20596;-55
2023/06/28 23:57:56;;;;;;;3.67;3.37;;;;;;;-143.84;86.99;45083.34;4913419;29;20445;-55
